Accueil
METAR-TAF:

METAR-TAF

Aéroports :

Førde, Norvège

latitude: 61-27N, longitude: 005-52E, altitude: 150 m

Observation

Le bulletin a été fait il y a 5 heures et 50 minutes, à 22:20 UTC
Vent 4 kt de nord/nord-est
Température 0°C
Humidité 86%
Pression 1018 hPa
Visibilité 10 km ou plus
Quelques nuages à une hauteur de 2000 ft

METAR: ENBL 102220Z 03004KT 9999 FEW020 M00/M02 Q1018

Heure: 05:10 (04:10 UTC)


TAF: absent

Observations et prévisions météorologiques de plus de 4000 aéroports (messages METAR et TAF).

Les stations disponibles sont représentées par des disques jaunes et rouges sur la carte.

Passer la souris dessus pour voir le nom de la station.

Cliquer dessus pour voir les observations et prévisions météorologiques.

Pour changer de carte: cliquez sur les boutons verts avec une croix noire pour zoomer, sur le bouton vert avec un tiret pour effectuer un zoom arrière, ou sur les flèches vertes pour les cartes adjacentes.


METAR-TAF: